BEL4CT EYVI-EBBR
Flight info
| Callsign | BEL4CT |
|---|---|
| Flight time | 1h 54m |
| Altitude | 38000 |
| Route | UPASI1A/01 UPASI DCT TUNGA DCT SUWGI DCT ELKAR DCT DEKUT DCT GILAS DCT EMBOX DCT TOLGI DCT ABAMI Z717 NEREL/N0362F240 T855 AGENI/N0332F180 T855 BATTY |
| Aircraft | A20N/M-SDE2E3FGHIRWXY/LB1 |
Departure
| Time | 2026-04-30 17:47 |
|---|---|
| Airport | Vilnius International Airport (EYVI) |
Arrival
| Time | 2026-04-30 19:41 |
|---|---|
| Airport | Brussels Airport (EBBR) |
| Time | Latitude | Longitude | Altitude | Speed | Heading |
|---|---|---|---|---|---|
| 2026-04-30 17:39 | 54.64556 | 25.28835 | 614 ft | 0 kts | 79° |
| 2026-04-30 17:41 | 54.64063 | 25.28718 | 614 ft | 23 kts | 202° |
| 2026-04-30 17:42 | 54.63737 | 25.28492 | 614 ft | 27 kts | 202° |
| 2026-04-30 17:42 | 54.63201 | 25.28119 | 614 ft | 32 kts | 202° |
| 2026-04-30 17:43 | 54.63141 | 25.28075 | 617 ft | 32 kts | 203° |
| 2026-04-30 17:44 | 54.62721 | 25.27786 | 614 ft | 23 kts | 202° |
| 2026-04-30 17:44 | 54.62488 | 25.27694 | 618 ft | 10 kts | 143° |
| 2026-04-30 17:46 | 54.62646 | 25.28042 | 612 ft | 68 kts | 21° |
| 2026-04-30 17:47 | 54.66356 | 25.30708 | 2463 ft | 162 kts | 20° |
| 2026-04-30 17:48 | 54.70428 | 25.33935 | 5230 ft | 178 kts | 21° |
| 2026-04-30 17:48 | 54.74135 | 25.36557 | 6995 ft | 218 kts | 20° |
| 2026-04-30 17:49 | 54.80566 | 25.38068 | 9858 ft | 263 kts | 331° |
| 2026-04-30 17:50 | 54.81429 | 25.24672 | 11896 ft | 364 kts | 236° |
| 2026-04-30 17:51 | 54.75319 | 25.16142 | 14046 ft | 387 kts | 225° |
| 2026-04-30 17:52 | 54.70189 | 25.05256 | 15281 ft | 394 kts | 239° |
| 2026-04-30 17:53 | 54.62265 | 24.85419 | 17561 ft | 413 kts | 239° |
| 2026-04-30 17:54 | 54.55529 | 24.68809 | 19856 ft | 433 kts | 239° |
| 2026-04-30 17:55 | 54.48450 | 24.51479 | 22011 ft | 451 kts | 239° |
| 2026-04-30 17:56 | 54.41093 | 24.33595 | 24060 ft | 468 kts | 239° |
| 2026-04-30 17:57 | 54.37030 | 24.18565 | 25251 ft | 464 kts | 261° |
| 2026-04-30 17:58 | 54.34214 | 24.02453 | 26428 ft | 477 kts | 261° |
| 2026-04-30 17:59 | 54.30284 | 23.80449 | 27886 ft | 492 kts | 261° |
| 2026-04-30 18:00 | 54.26176 | 23.57732 | 29198 ft | 507 kts | 261° |
| 2026-04-30 18:00 | 54.22967 | 23.40407 | 30090 ft | 520 kts | 257° |
| 2026-04-30 18:01 | 54.19677 | 23.29152 | 30668 ft | 535 kts | 247° |
| 2026-04-30 18:02 | 54.14249 | 23.12398 | 31611 ft | 539 kts | 247° |
| 2026-04-30 18:02 | 54.08825 | 22.95729 | 32740 ft | 537 kts | 247° |
| 2026-04-30 18:03 | 54.05242 | 22.78219 | 33810 ft | 516 kts | 265° |
| 2026-04-30 18:04 | 54.02692 | 22.60488 | 34837 ft | 512 kts | 264° |
| 2026-04-30 18:05 | 53.99322 | 22.37565 | 36083 ft | 503 kts | 263° |
| 2026-04-30 18:06 | 53.95923 | 22.14786 | 37200 ft | 496 kts | 262° |
| 2026-04-30 18:07 | 53.92516 | 21.92290 | 38207 ft | 488 kts | 261° |
| 2026-04-30 18:08 | 53.89960 | 21.75621 | 38340 ft | 486 kts | 261° |
| 2026-04-30 18:10 | 53.82987 | 21.30983 | 38347 ft | 497 kts | 261° |
| 2026-04-30 18:11 | 53.76669 | 20.91593 | 38349 ft | 497 kts | 260° |
| 2026-04-30 18:13 | 53.72078 | 20.63521 | 38353 ft | 497 kts | 260° |
| 2026-04-30 18:14 | 53.67577 | 20.35380 | 38357 ft | 496 kts | 261° |
| 2026-04-30 18:15 | 53.62409 | 20.01668 | 38360 ft | 496 kts | 261° |
| 2026-04-30 18:16 | 53.58879 | 19.79200 | 38359 ft | 496 kts | 261° |
| 2026-04-30 18:17 | 53.57111 | 19.68055 | 38353 ft | 496 kts | 260° |
| 2026-04-30 18:18 | 53.54423 | 19.51256 | 38353 ft | 496 kts | 260° |
| 2026-04-30 18:18 | 53.52617 | 19.40064 | 38354 ft | 496 kts | 260° |
| 2026-04-30 18:19 | 53.50801 | 19.28886 | 38353 ft | 496 kts | 260° |
| 2026-04-30 18:19 | 53.48984 | 19.17773 | 38353 ft | 496 kts | 260° |
| 2026-04-30 18:20 | 53.47145 | 19.06598 | 38351 ft | 497 kts | 260° |
| 2026-04-30 18:20 | 53.45295 | 18.95425 | 38351 ft | 497 kts | 260° |
| 2026-04-30 18:21 | 53.43435 | 18.84267 | 38352 ft | 497 kts | 259° |
| 2026-04-30 18:21 | 53.41575 | 18.73181 | 38352 ft | 497 kts | 259° |
| 2026-04-30 18:22 | 53.39691 | 18.62025 | 38351 ft | 498 kts | 259° |
| 2026-04-30 18:22 | 53.36843 | 18.45293 | 38358 ft | 498 kts | 259° |
| 2026-04-30 18:23 | 53.35254 | 18.36028 | 38360 ft | 498 kts | 259° |
| 2026-04-30 18:23 | 53.33021 | 18.23090 | 38354 ft | 498 kts | 259° |
| 2026-04-30 18:24 | 53.30120 | 18.06414 | 38356 ft | 498 kts | 259° |
| 2026-04-30 18:25 | 53.28173 | 17.95312 | 38351 ft | 498 kts | 259° |
| 2026-04-30 18:25 | 53.25247 | 17.78756 | 38358 ft | 498 kts | 258° |
| 2026-04-30 18:26 | 53.22285 | 17.62143 | 38358 ft | 498 kts | 258° |
| 2026-04-30 18:27 | 53.19639 | 17.47435 | 38372 ft | 498 kts | 258° |
| 2026-04-30 18:28 | 53.16306 | 17.29075 | 38376 ft | 498 kts | 258° |
| 2026-04-30 18:28 | 53.13618 | 17.14399 | 38381 ft | 498 kts | 258° |
| 2026-04-30 18:29 | 53.09256 | 16.90576 | 38388 ft | 497 kts | 258° |
| 2026-04-30 18:30 | 53.05586 | 16.70435 | 38388 ft | 497 kts | 258° |
| 2026-04-30 18:31 | 53.02549 | 16.53975 | 38398 ft | 496 kts | 257° |
| 2026-04-30 18:32 | 52.99491 | 16.37554 | 38394 ft | 496 kts | 257° |
| 2026-04-30 18:33 | 52.96428 | 16.21243 | 38401 ft | 496 kts | 257° |
| 2026-04-30 18:33 | 52.93331 | 16.04901 | 38401 ft | 495 kts | 257° |
| 2026-04-30 18:34 | 52.90217 | 15.88604 | 38401 ft | 494 kts | 257° |
| 2026-04-30 18:35 | 52.88146 | 15.77846 | 38403 ft | 494 kts | 257° |
| 2026-04-30 18:35 | 52.86050 | 15.67018 | 38406 ft | 493 kts | 257° |
| 2026-04-30 18:36 | 52.82898 | 15.50848 | 38409 ft | 492 kts | 257° |
| 2026-04-30 18:37 | 52.79738 | 15.34776 | 38411 ft | 492 kts | 256° |
| 2026-04-30 18:37 | 52.77615 | 15.24050 | 38410 ft | 491 kts | 256° |
| 2026-04-30 18:38 | 52.75484 | 15.13345 | 38411 ft | 491 kts | 256° |
| 2026-04-30 18:38 | 52.73348 | 15.02668 | 38409 ft | 490 kts | 256° |
| 2026-04-30 18:39 | 52.71200 | 14.91997 | 38409 ft | 490 kts | 256° |
| 2026-04-30 18:39 | 52.69060 | 14.81416 | 38405 ft | 489 kts | 256° |
| 2026-04-30 18:40 | 52.66896 | 14.70779 | 38402 ft | 489 kts | 256° |
| 2026-04-30 18:40 | 52.64726 | 14.60167 | 38401 ft | 489 kts | 256° |
| 2026-04-30 18:41 | 52.62572 | 14.49559 | 38405 ft | 487 kts | 258° |
| 2026-04-30 18:41 | 52.60795 | 14.38827 | 38403 ft | 485 kts | 260° |
| 2026-04-30 18:42 | 52.59088 | 14.28172 | 38400 ft | 485 kts | 259° |
| 2026-04-30 18:42 | 52.56407 | 14.12120 | 38408 ft | 485 kts | 259° |
| 2026-04-30 18:45 | 52.46362 | 13.53711 | 38402 ft | 483 kts | 258° |
| 2026-04-30 18:46 | 52.44506 | 13.43125 | 38404 ft | 482 kts | 258° |
| 2026-04-30 18:46 | 52.42657 | 13.32641 | 38411 ft | 482 kts | 258° |
| 2026-04-30 18:47 | 52.40786 | 13.22095 | 38410 ft | 482 kts | 258° |
| 2026-04-30 18:47 | 52.38909 | 13.11573 | 38410 ft | 481 kts | 258° |
| 2026-04-30 18:48 | 52.37023 | 13.01069 | 38417 ft | 481 kts | 258° |
| 2026-04-30 18:48 | 52.35129 | 12.90578 | 38429 ft | 480 kts | 258° |
| 2026-04-30 18:49 | 52.33243 | 12.80190 | 38427 ft | 480 kts | 257° |
| 2026-04-30 18:49 | 52.31335 | 12.69740 | 38429 ft | 479 kts | 257° |
| 2026-04-30 18:50 | 52.29430 | 12.59372 | 38432 ft | 470 kts | 257° |
| 2026-04-30 18:50 | 52.27557 | 12.49240 | 38425 ft | 466 kts | 257° |
| 2026-04-30 18:51 | 52.25686 | 12.39143 | 38426 ft | 468 kts | 257° |
| 2026-04-30 18:51 | 52.23795 | 12.29016 | 38430 ft | 467 kts | 257° |
| 2026-04-30 18:52 | 52.21896 | 12.18895 | 38430 ft | 467 kts | 257° |
| 2026-04-30 18:52 | 52.19987 | 12.08779 | 38433 ft | 466 kts | 257° |
| 2026-04-30 18:53 | 52.18072 | 11.98689 | 38429 ft | 466 kts | 256° |
| 2026-04-30 18:53 | 52.16152 | 11.88624 | 38433 ft | 465 kts | 256° |
| 2026-04-30 18:54 | 52.14226 | 11.78575 | 38423 ft | 465 kts | 256° |
| 2026-04-30 18:54 | 52.12305 | 11.68609 | 38424 ft | 464 kts | 256° |
| 2026-04-30 18:55 | 52.10362 | 11.58583 | 38423 ft | 464 kts | 256° |
| 2026-04-30 18:55 | 52.07436 | 11.43579 | 38425 ft | 464 kts | 256° |
| 2026-04-30 18:56 | 52.04941 | 11.28518 | 38428 ft | 460 kts | 263° |
| 2026-04-30 18:57 | 52.03170 | 11.13209 | 38432 ft | 460 kts | 263° |
| 2026-04-30 18:57 | 52.01961 | 11.03036 | 38438 ft | 460 kts | 262° |
| 2026-04-30 18:58 | 52.00113 | 10.87744 | 38442 ft | 460 kts | 262° |
| 2026-04-30 18:59 | 51.98248 | 10.72479 | 38448 ft | 460 kts | 262° |
| 2026-04-30 19:00 | 51.95740 | 10.52225 | 38443 ft | 459 kts | 262° |
| 2026-04-30 19:01 | 51.93189 | 10.31928 | 38439 ft | 459 kts | 261° |
| 2026-04-30 19:02 | 51.91253 | 10.16723 | 38437 ft | 459 kts | 261° |
| 2026-04-30 19:03 | 51.88654 | 9.96564 | 38439 ft | 459 kts | 261° |
| 2026-04-30 19:04 | 51.86010 | 9.76354 | 38431 ft | 459 kts | 261° |
| 2026-04-30 19:05 | 51.83337 | 9.56200 | 38424 ft | 458 kts | 260° |
| 2026-04-30 19:06 | 51.80064 | 9.36341 | 38416 ft | 459 kts | 257° |
| 2026-04-30 19:06 | 51.77533 | 9.21451 | 38410 ft | 458 kts | 256° |
| 2026-04-30 19:07 | 51.74974 | 9.06593 | 38406 ft | 458 kts | 256° |
| 2026-04-30 19:08 | 51.71537 | 8.86843 | 38304 ft | 457 kts | 256° |
| 2026-04-30 19:08 | 51.70683 | 8.81966 | 38131 ft | 458 kts | 256° |
| 2026-04-30 19:09 | 51.68945 | 8.72089 | 37430 ft | 457 kts | 256° |
| 2026-04-30 19:09 | 51.68076 | 8.67169 | 37073 ft | 457 kts | 256° |
| 2026-04-30 19:09 | 51.67203 | 8.62238 | 36739 ft | 458 kts | 256° |
| 2026-04-30 19:10 | 51.65444 | 8.52352 | 36068 ft | 459 kts | 255° |
| 2026-04-30 19:10 | 51.63676 | 8.42463 | 35416 ft | 460 kts | 255° |
| 2026-04-30 19:11 | 51.62788 | 8.37518 | 35092 ft | 460 kts | 255° |
| 2026-04-30 19:11 | 51.61001 | 8.27608 | 34454 ft | 462 kts | 255° |
| 2026-04-30 19:11 | 51.60103 | 8.22648 | 34104 ft | 462 kts | 255° |
| 2026-04-30 19:12 | 51.59201 | 8.17685 | 33743 ft | 463 kts | 255° |
| 2026-04-30 19:12 | 51.58310 | 8.12788 | 33391 ft | 464 kts | 255° |
| 2026-04-30 19:12 | 51.57402 | 8.07812 | 33030 ft | 465 kts | 255° |
| 2026-04-30 19:13 | 51.55574 | 7.97839 | 32578 ft | 466 kts | 254° |
| 2026-04-30 19:13 | 51.53738 | 7.87876 | 32313 ft | 467 kts | 254° |
| 2026-04-30 19:13 | 51.52820 | 7.82872 | 32180 ft | 467 kts | 256° |
| 2026-04-30 19:14 | 51.52080 | 7.77806 | 32050 ft | 467 kts | 257° |
| 2026-04-30 19:14 | 51.51317 | 7.72726 | 31919 ft | 467 kts | 257° |
| 2026-04-30 19:14 | 51.50563 | 7.67733 | 31776 ft | 467 kts | 257° |
| 2026-04-30 19:14 | 51.49809 | 7.62654 | 31487 ft | 468 kts | 257° |
| 2026-04-30 19:15 | 51.49067 | 7.57577 | 31216 ft | 468 kts | 257° |
| 2026-04-30 19:15 | 51.47588 | 7.47418 | 30675 ft | 466 kts | 257° |
| 2026-04-30 19:15 | 51.46851 | 7.42375 | 30402 ft | 463 kts | 257° |
| 2026-04-30 19:16 | 51.46116 | 7.37356 | 30088 ft | 462 kts | 257° |
| 2026-04-30 19:16 | 51.45380 | 7.32356 | 29775 ft | 460 kts | 257° |
| 2026-04-30 19:16 | 51.43921 | 7.22489 | 29168 ft | 456 kts | 257° |
| 2026-04-30 19:17 | 51.43189 | 7.17562 | 28865 ft | 454 kts | 257° |
| 2026-04-30 19:17 | 51.41726 | 7.07758 | 28256 ft | 451 kts | 256° |
| 2026-04-30 19:17 | 51.40995 | 7.02885 | 27964 ft | 449 kts | 256° |
| 2026-04-30 19:18 | 51.39782 | 6.94832 | 27469 ft | 446 kts | 256° |
| 2026-04-30 19:18 | 51.38808 | 6.88394 | 27097 ft | 444 kts | 256° |
| 2026-04-30 19:18 | 51.38079 | 6.83588 | 26815 ft | 443 kts | 256° |
| 2026-04-30 19:19 | 51.37361 | 6.78875 | 26542 ft | 441 kts | 256° |
| 2026-04-30 19:19 | 51.36634 | 6.74112 | 26268 ft | 440 kts | 256° |
| 2026-04-30 19:19 | 51.35180 | 6.64640 | 25725 ft | 437 kts | 256° |
| 2026-04-30 19:20 | 51.34455 | 6.59933 | 25458 ft | 436 kts | 256° |
| 2026-04-30 19:20 | 51.33732 | 6.55251 | 25198 ft | 434 kts | 255° |
| 2026-04-30 19:20 | 51.32279 | 6.45891 | 24655 ft | 432 kts | 255° |
| 2026-04-30 19:21 | 51.31564 | 6.41303 | 24314 ft | 431 kts | 255° |
| 2026-04-30 19:21 | 51.30117 | 6.32060 | 23568 ft | 426 kts | 255° |
| 2026-04-30 19:22 | 51.28683 | 6.22949 | 22762 ft | 421 kts | 255° |
| 2026-04-30 19:22 | 51.26545 | 6.09460 | 21596 ft | 414 kts | 255° |
| 2026-04-30 19:23 | 51.24489 | 5.96587 | 20483 ft | 408 kts | 255° |
| 2026-04-30 19:24 | 51.23082 | 5.87844 | 19766 ft | 423 kts | 255° |
| 2026-04-30 19:24 | 51.22337 | 5.83233 | 19335 ft | 432 kts | 254° |
| 2026-04-30 19:24 | 51.20847 | 5.74034 | 18219 ft | 423 kts | 254° |
| 2026-04-30 19:25 | 51.18663 | 5.60645 | 16745 ft | 413 kts | 254° |
| 2026-04-30 19:26 | 51.17222 | 5.51879 | 15849 ft | 406 kts | 254° |
| 2026-04-30 19:26 | 51.15805 | 5.43300 | 14979 ft | 401 kts | 253° |
| 2026-04-30 19:26 | 51.15097 | 5.39027 | 14545 ft | 398 kts | 253° |
| 2026-04-30 19:27 | 51.13687 | 5.30557 | 13663 ft | 393 kts | 253° |
| 2026-04-30 19:27 | 51.12293 | 5.22217 | 12731 ft | 388 kts | 253° |
| 2026-04-30 19:28 | 51.11600 | 5.18084 | 12282 ft | 384 kts | 253° |
| 2026-04-30 19:28 | 51.10234 | 5.09970 | 11365 ft | 370 kts | 253° |
| 2026-04-30 19:29 | 51.08964 | 5.02455 | 10544 ft | 354 kts | 253° |
| 2026-04-30 19:29 | 51.08301 | 4.98705 | 10113 ft | 350 kts | 250° |
| 2026-04-30 19:30 | 51.05918 | 4.87960 | 8717 ft | 338 kts | 248° |
| 2026-04-30 19:30 | 51.04392 | 4.81091 | 7806 ft | 319 kts | 248° |
| 2026-04-30 19:31 | 51.02991 | 4.74688 | 7304 ft | 293 kts | 248° |
| 2026-04-30 19:31 | 51.02331 | 4.71677 | 7274 ft | 290 kts | 247° |
| 2026-04-30 19:31 | 51.00997 | 4.65635 | 7271 ft | 291 kts | 247° |
| 2026-04-30 19:32 | 51.00330 | 4.62604 | 7268 ft | 291 kts | 247° |
| 2026-04-30 19:32 | 50.99660 | 4.59570 | 7264 ft | 291 kts | 247° |
| 2026-04-30 19:32 | 50.98992 | 4.56545 | 7268 ft | 291 kts | 247° |
| 2026-04-30 19:32 | 50.98321 | 4.53511 | 7267 ft | 291 kts | 247° |
| 2026-04-30 19:33 | 50.97651 | 4.50488 | 7265 ft | 290 kts | 247° |
| 2026-04-30 19:33 | 50.96981 | 4.47468 | 7266 ft | 290 kts | 247° |
| 2026-04-30 19:33 | 50.96311 | 4.44453 | 7267 ft | 290 kts | 247° |
| 2026-04-30 19:33 | 50.95641 | 4.41439 | 7258 ft | 288 kts | 247° |
| 2026-04-30 19:34 | 50.94980 | 4.38473 | 7073 ft | 290 kts | 247° |
| 2026-04-30 19:34 | 50.94308 | 4.35463 | 6785 ft | 288 kts | 247° |
| 2026-04-30 19:34 | 50.92993 | 4.29570 | 6153 ft | 276 kts | 246° |
| 2026-04-30 19:35 | 50.92361 | 4.26735 | 5716 ft | 270 kts | 246° |
| 2026-04-30 19:35 | 50.91738 | 4.23955 | 5275 ft | 266 kts | 246° |
| 2026-04-30 19:35 | 50.91123 | 4.21220 | 4810 ft | 261 kts | 245° |
| 2026-04-30 19:35 | 50.90360 | 4.18759 | 4468 ft | 239 kts | 225° |
| 2026-04-30 19:36 | 50.89097 | 4.17284 | 4108 ft | 223 kts | 192° |
| 2026-04-30 19:36 | 50.87626 | 4.17176 | 3952 ft | 212 kts | 160° |
| 2026-04-30 19:36 | 50.85402 | 4.20046 | 3517 ft | 207 kts | 131° |
| 2026-04-30 19:37 | 50.84585 | 4.21834 | 3389 ft | 191 kts | 117° |
| 2026-04-30 19:37 | 50.84256 | 4.23752 | 3189 ft | 176 kts | 93° |
| 2026-04-30 19:37 | 50.84490 | 4.25643 | 2841 ft | 177 kts | 79° |
| 2026-04-30 19:37 | 50.84864 | 4.27439 | 2637 ft | 167 kts | 76° |
| 2026-04-30 19:38 | 50.85277 | 4.29183 | 2524 ft | 164 kts | 75° |
| 2026-04-30 19:38 | 50.85697 | 4.30773 | 2339 ft | 153 kts | 73° |
| 2026-04-30 19:38 | 50.86132 | 4.32322 | 2131 ft | 154 kts | 72° |
| 2026-04-30 19:38 | 50.86585 | 4.33842 | 1918 ft | 148 kts | 72° |
| 2026-04-30 19:39 | 50.86986 | 4.35313 | 1707 ft | 143 kts | 73° |
| 2026-04-30 19:39 | 50.87364 | 4.36691 | 1509 ft | 130 kts | 73° |
| 2026-04-30 19:39 | 50.87713 | 4.37958 | 1334 ft | 126 kts | 73° |
| 2026-04-30 19:39 | 50.88071 | 4.39217 | 1167 ft | 125 kts | 72° |
| 2026-04-30 19:40 | 50.88426 | 4.40478 | 984 ft | 127 kts | 71° |
| 2026-04-30 19:40 | 50.88795 | 4.41774 | 760 ft | 128 kts | 68° |
| 2026-04-30 19:40 | 50.89165 | 4.43063 | 604 ft | 130 kts | 68° |
| 2026-04-30 19:40 | 50.89540 | 4.44355 | 406 ft | 125 kts | 66° |
| 2026-04-30 19:41 | 50.89902 | 4.45598 | 230 ft | 126 kts | 67° |
| 2026-04-30 19:41 | 50.90256 | 4.46821 | 128 ft | 116 kts | 67° |
| 2026-04-30 19:41 | 50.90514 | 4.47725 | 120 ft | 61 kts | 66° |
| 2026-04-30 19:41 | 50.90650 | 4.48196 | 121 ft | 20 kts | 66° |
| 2026-04-30 19:42 | 50.90647 | 4.48323 | 119 ft | 12 kts | 115° |
| 2026-04-30 19:42 | 50.90613 | 4.48417 | 120 ft | 9 kts | 120° |
| 2026-04-30 19:42 | 50.90599 | 4.48456 | 119 ft | 2 kts | 120° |
| 2026-04-30 19:42 | 50.90592 | 4.48475 | 121 ft | 3 kts | 120° |
| 2026-04-30 19:43 | 50.90575 | 4.48522 | 117 ft | 7 kts | 120° |
| 2026-04-30 19:43 | 50.90539 | 4.48585 | 118 ft | 9 kts | 157° |
| 2026-04-30 19:43 | 50.90491 | 4.48540 | 119 ft | 10 kts | 242° |
| 2026-04-30 19:44 | 50.90436 | 4.48441 | 120 ft | 5 kts | 172° |
| 2026-04-30 19:44 | 50.90404 | 4.48461 | 118 ft | 6 kts | 155° |
| 2026-04-30 19:44 | 50.90373 | 4.48484 | 120 ft | 0 kts | 155° |